Austin, Nevada
Current Conditions -  °F | °C
As of 7:56 PM on Saturday 25 Oct 2014 (Local Time) from KNFL Reporting Station
Clear Clear  
Wind Chill: 54°   Ceiling: Unl
Heat Index: 54°   Visibility: 10mi
Dew Point: 31°   Wind: 7mph
Humidity: 41%   Direction: 230°SW
Pressure: 30"   Gusts: NA
Location:  39.49°N, 117.07°W
Report Text: KNFL 260256Z AUTO 23006KT 10SM CLR 12/M01 A3000 RMK AO2 SLP130 T01221006 53014
Loading
Personal Weather Stations






























Interactive Weather Map New forecast layout! Learn more

10-Day Weather Forecast

Advertisements
Track Severe Weather on mobile